Time;durP1;ratioP1;P1;durP2;ratioP2;P2;SDS_P1;SDS_P2;PMS_P1;PMS_P2;Temp;Humidity;BMP_temperature;BMP_pressure;BME280_temperature;BME280_humidity;BME280_pressure;Samples;Min_cycle;Max_cycle;Signal;HPM_P1;HPM_P2
2022/06/09 00:00:19;;;;;;;4.85;3.05;;;19.10;67.80;;;;;;4972221;28;20373;-69
2022/06/09 00:02:48;;;;;;;4.70;3.03;;;19.00;67.90;;;;;;5038757;28;20023;-70
2022/06/09 00:05:14;;;;;;;4.25;2.75;;;18.90;68.40;;;;;;4971906;28;20026;-70
2022/06/09 00:07:41;;;;;;;4.53;3.05;;;18.90;68.50;;;;;;4972177;28;20034;-70
2022/06/09 00:10:16;;;;;;;5.43;3.13;;;18.90;68.60;;;;;;4972350;28;20030;-71
2022/06/09 00:12:42;;;;;;;5.35;2.85;;;;;;;;;;4972825;28;20035;-72
2022/06/09 00:15:09;;;;;;;6.43;3.15;;;;;;;;;;4972777;28;20433;-72
2022/06/09 00:17:34;;;;;;;3.83;2.78;;;18.90;68.40;;;;;;4971200;28;20031;-71
2022/06/09 00:20:00;;;;;;;6.18;3.00;;;18.60;69.30;;;;;;4971796;28;20029;-71
2022/06/09 00:22:26;;;;;;;4.65;2.78;;;18.50;69.70;;;;;;4971739;28;20039;-71
2022/06/09 00:24:51;;;;;;;5.32;2.40;;;18.40;69.80;;;;;;4971690;28;20027;-71
2022/06/09 00:27:17;;;;;;;4.80;2.30;;;18.30;69.40;;;;;;4970859;28;20035;-70
2022/06/09 00:29:43;;;;;;;5.63;2.00;;;18.20;69.50;;;;;;4971548;28;20052;-70
2022/06/09 00:32:08;;;;;;;5.55;2.40;;;18.20;69.00;;;;;;4971092;28;20443;-69
2022/06/09 00:34:34;;;;;;;5.75;2.03;;;18.20;68.90;;;;;;4971482;28;20031;-70
2022/06/09 00:37:00;;;;;;;9.07;2.50;;;18.10;69.10;;;;;;4970985;28;20038;-69
2022/06/09 00:39:26;;;;;;;5.38;2.45;;;18.00;68.80;;;;;;4971001;28;20370;-70
2022/06/09 00:41:51;;;;;;;3.72;1.95;;;18.00;68.70;;;;;;4971203;28;20072;-70
2022/06/09 00:44:18;;;;;;;6.65;2.13;;;17.90;69.00;;;;;;4971072;28;20408;-71
2022/06/09 00:46:54;;;;;;;5.55;2.63;;;17.80;69.30;;;;;;4970896;28;20381;-70
2022/06/09 00:49:27;;;;;;;3.58;1.85;;;17.70;69.10;;;;;;4970442;28;20031;-70
2022/06/09 00:51:56;;;;;;;4.05;1.85;;;17.70;68.50;;;;;;4971000;28;20030;-70
2022/06/09 00:54:28;;;;;;;5.43;1.45;;;17.60;68.90;;;;;;4970990;28;20027;-70
2022/06/09 00:57:07;;;;;;;4.18;1.88;;;17.50;68.90;;;;;;4970868;28;20551;-70
2022/06/09 00:59:35;;;;;;;4.22;1.52;;;17.50;69.00;;;;;;4959517;28;20039;-71
2022/06/09 01:02:05;;;;;;;2.05;1.50;;;17.50;68.90;;;;;;4970441;28;20548;-69
2022/06/09 01:04:32;;;;;;;4.13;1.92;;;17.50;69.30;;;;;;4970404;28;20393;-71
2022/06/09 01:07:04;;;;;;;2.80;1.65;;;17.40;69.60;;;;;;4970610;28;20035;-70
2022/06/09 01:09:30;;;;;;;;;;;17.40;69.90;;;;;;4971247;28;20023;-69
2022/06/09 01:11:56;;;;;;;9.85;2.00;;;17.20;70.10;;;;;;4970052;28;20339;-71
2022/06/09 01:14:31;;;;;;;5.45;1.67;;;17.10;70.60;;;;;;4953218;28;20023;-71
2022/06/09 01:17:23;;;;;;;8.93;1.88;;;17.10;70.80;;;;;;4970586;28;20053;-71
2022/06/09 01:20:01;;;;;;;2.28;1.42;;;17.10;70.80;;;;;;4970810;28;20023;-71
2022/06/09 01:22:36;;;;;;;3.53;1.48;;;17.10;70.80;;;;;;4953152;28;20146;-71
2022/06/09 01:25:16;;;;;;;3.28;1.85;;;17.10;71.10;;;;;;4970699;28;20019;-71
2022/06/09 01:28:13;;;;;;;4.57;1.50;;;17.10;71.00;;;;;;4970080;28;20117;-71
2022/06/09 01:30:46;;;;;;;5.03;2.20;;;17.00;71.10;;;;;;4971500;28;20258;-71
2022/06/09 01:33:41;;;;;;;4.60;2.08;;;17.00;71.30;;;;;;4953828;28;20481;-71
2022/06/09 01:36:30;;;;;;;6.15;2.22;;;17.00;71.70;;;;;;4970829;28;20062;-71
2022/06/09 01:38:57;;;;;;;6.93;1.77;;;17.00;71.80;;;;;;4969624;28;20027;-71
2022/06/09 01:41:24;;;;;;;4.68;1.60;;;17.00;71.80;;;;;;4970408;28;20121;-71
2022/06/09 01:43:53;;;;;;;5.10;1.95;;;17.00;71.70;;;;;;4970420;28;20057;-71
2022/06/09 01:46:33;;;;;;;7.45;1.65;;;17.00;71.60;;;;;;4970088;28;20038;-72
2022/06/09 01:49:25;;;;;;;3.40;1.58;;;17.00;72.00;;;;;;4969426;28;20031;-71
2022/06/09 01:51:52;;;;;;;4.95;1.60;;;16.90;71.90;;;;;;4969802;28;20042;-70
2022/06/09 01:54:23;;;;;;;5.18;2.10;;;16.90;72.10;;;;;;4970074;28;20035;-71
2022/06/09 01:57:02;;;;;;;5.70;1.60;;;16.80;72.60;;;;;;4968871;28;20031;-71
2022/06/09 01:59:30;;;;;;;3.15;1.70;;;;;;;;;;4969822;28;20015;-71
2022/06/09 02:02:19;;;;;;;4.30;1.63;;;;;;;;;;4969748;28;20030;-71
2022/06/09 02:04:48;;;;;;;7.10;2.20;;;;;;;;;;4969610;28;20412;-71
2022/06/09 02:07:15;;;;;;;6.15;1.88;;;;;;;;;;4969326;28;20508;-71
2022/06/09 02:09:41;;;;;;;5.60;1.95;;;;;;;;;;4969862;28;20442;-71
2022/06/09 02:12:10;;;;;;;4.85;1.52;;;;;;;;;;4969671;28;20071;-71
2022/06/09 02:14:37;;;;;;;2.55;1.48;;;;;;;;;;4969007;28;20031;-71
2022/06/09 02:17:04;;;;;;;4.22;1.83;;;;;;;;;;4969333;28;20149;-69
2022/06/09 02:19:30;;;;;;;4.40;1.52;;;;;;;;;;4969584;28;20027;-71
2022/06/09 02:21:57;;;;;;;2.67;1.20;;;;;;;;;;4969531;28;20035;-71
2022/06/09 02:24:23;;;;;;;3.53;1.60;;;;;;;;;;5036076;28;20018;-71
2022/06/09 02:26:49;;;;;;;3.70;1.27;;;;;;;;;;5035960;28;20031;-71
2022/06/09 02:29:15;;;;;;;4.47;1.67;;;;;;;;;;4969282;28;20110;-71
2022/06/09 02:31:42;;;;;;;3.83;1.52;;;;;;;;;;4969548;28;20504;-70
2022/06/09 02:34:09;;;;;;;3.05;1.25;;;;;;;;;;4969415;28;20080;-69
2022/06/09 02:36:35;;;;;;;3.10;1.38;;;;;;;;;;4969501;28;20114;-72
2022/06/09 02:39:01;;;;;;;5.38;1.35;;;;;;;;;;4968848;28;20055;-71
2022/06/09 02:41:27;;;;;;;3.20;1.25;;;;;;;;;;4969490;28;20114;-71
2022/06/09 02:43:53;;;;;;;2.38;1.25;;;;;;;;;;4969956;28;20058;-71
2022/06/09 02:46:19;;;;;;;7.18;1.55;;;;;;;;;;4969834;28;20062;-72
2022/06/09 02:48:45;;;;;;;3.78;1.52;;;;;;;;;;4969005;28;20224;-71
2022/06/09 02:51:30;;;;;;;3.35;1.10;;;;;;;;;;4969705;28;20027;-71
2022/06/09 02:53:57;;;;;;;6.35;1.30;;;;;;;;;;4968181;28;20092;-72
2022/06/09 02:56:23;;;;;;;3.85;1.15;;;;;;;;;;4969749;28;20499;-71
2022/06/09 02:58:49;;;;;;;1.95;1.33;;;;;;;;;;4968782;28;20469;-70
2022/06/09 03:01:15;;;;;;;2.88;1.10;;;;;;;;;;4969327;28;20084;-69
2022/06/09 03:03:41;;;;;;;6.15;1.15;;;;;;;;;;4969375;28;20031;-70
2022/06/09 03:06:08;;;;;;;220.63;131.15;;;;;;;;;;4969291;28;20056;-70
2022/06/09 03:08:34;;;;;;;253.05;129.77;;;;;;;;;;4966118;28;20027;-69
2022/06/09 03:11:00;;;;;;;7.95;3.33;;;;;;;;;;4968969;28;20035;-70
2022/06/09 03:13:27;;;;;;;7.97;3.70;;;;;;;;;;4969330;28;20053;-69
2022/06/09 03:15:53;;;;;;;9.82;3.92;;;;;;;;;;4969471;28;20365;-70
2022/06/09 03:18:19;;;;;;;4.47;1.33;;;;;;;;;;4950859;28;20072;-71
2022/06/09 03:20:46;;;;;;;37.88;21.42;;;;;;;;;;4969115;28;20105;-71
2022/06/09 03:23:12;;;;;;;24.63;11.77;;;;;;;;;;4969084;28;20435;-71
2022/06/09 03:25:38;;;;;;;21.65;9.23;;;;;;;;;;4969157;28;20033;-71
2022/06/09 03:28:05;;;;;;;6.47;3.50;;;18.70;66.60;;;;;;4971869;28;20053;-71
2022/06/09 03:30:32;;;;;;;82.82;38.80;;;18.90;66.30;;;;;;4972364;28;20042;-71
2022/06/09 03:32:57;;;;;;;14.65;6.20;;;19.60;64.20;;;;;;4972905;28;20034;-71
2022/06/09 03:35:23;;;;;;;32.45;12.45;;;20.10;62.40;;;;;;4972443;28;20077;-71
2022/06/09 03:37:49;;;;;;;52.85;20.75;;;20.50;60.80;;;;;;4971418;28;20027;-71
2022/06/09 03:40:17;;;;;;;11.77;3.17;;;20.60;60.50;;;;;;4972268;28;20389;-71
2022/06/09 03:42:43;;;;;;;6.50;1.35;;;20.30;60.50;;;;;;4972502;28;20029;-70
2022/06/09 03:45:09;;;;;;;4.88;1.90;;;19.80;61.90;;;;;;4972211;28;20101;-70
2022/06/09 03:47:35;;;;;;;16.27;7.07;;;19.50;63.10;;;;;;4971727;28;20073;-71
2022/06/09 03:50:01;;;;;;;2.63;1.15;;;19.30;64.00;;;;;;4972263;28;20442;-71
2022/06/09 03:52:26;;;;;;;3.13;1.33;;;19.00;64.90;;;;;;4971892;28;20034;-71
2022/06/09 03:54:52;;;;;;;6.45;1.52;;;18.80;65.70;;;;;;4972318;28;20508;-71
2022/06/09 03:57:18;;;;;;;3.67;1.58;;;18.60;66.50;;;;;;4971084;28;20389;-70
2022/06/09 03:59:43;;;;;;;2.65;1.25;;;18.50;67.40;;;;;;4971818;28;20023;-71
2022/06/09 04:02:09;;;;;;;5.32;1.65;;;18.30;67.80;;;;;;4971625;28;20046;-71
2022/06/09 04:04:35;;;;;;;3.40;1.48;;;18.20;68.40;;;;;;4971883;28;20382;-72
2022/06/09 04:07:01;;;;;;;8.98;2.33;;;18.10;68.70;;;;;;4971173;28;20030;-71
2022/06/09 04:09:26;;;;;;;6.57;1.65;;;18.10;69.20;;;;;;4971464;28;20058;-72
2022/06/09 04:11:52;;;;;;;7.65;2.35;;;18.10;69.20;;;;;;5010916;22;20049;-71
2022/06/09 04:14:18;;;;;;;5.20;1.60;;;18.10;69.50;;;;;;5030328;28;20097;-70
2022/06/09 04:16:45;;;;;;;5.45;1.75;;;18.30;69.10;;;;;;5030141;28;20048;-69
2022/06/09 04:19:14;;;;;;;3.97;1.33;;;18.50;68.70;;;;;;5029737;28;20018;-69
2022/06/09 04:21:40;;;;;;;3.78;1.15;;;18.50;68.90;;;;;;5029844;28;20032;-69
2022/06/09 04:24:07;;;;;;;4.25;1.75;;;18.60;68.40;;;;;;5030204;28;20022;-68
2022/06/09 04:26:35;;;;;;;4.25;1.38;;;18.70;68.10;;;;;;5029961;28;20067;-69
2022/06/09 04:29:02;;;;;;;1.95;1.02;;;18.80;67.70;;;;;;5011781;28;20037;-69
2022/06/09 04:31:27;;;;;;;3.40;1.75;;;19.00;66.90;;;;;;5029989;28;20078;-70
2022/06/09 04:33:53;;;;;;;4.25;1.20;;;19.10;66.60;;;;;;5029925;28;20033;-68
2022/06/09 04:36:20;;;;;;;4.80;1.25;;;19.20;66.30;;;;;;5029691;28;20040;-69
2022/06/09 04:38:46;;;;;;;2.90;1.27;;;19.20;66.40;;;;;;5028633;28;20025;-68
2022/06/09 04:41:14;;;;;;;3.78;1.50;;;19.20;66.50;;;;;;5030143;28;20100;-69
2022/06/09 04:43:42;;;;;;;5.53;1.52;;;19.10;67.00;;;;;;5029966;28;20593;-69
2022/06/09 04:46:10;;;;;;;4.55;1.38;;;19.10;66.80;;;;;;5029800;28;20033;-70
2022/06/09 04:48:36;;;;;;;2.38;1.20;;;19.00;67.30;;;;;;5029040;28;20029;-70
2022/06/09 04:51:05;;;;;;;1.75;0.95;;;19.00;67.50;;;;;;5029693;28;20053;-70
2022/06/09 04:53:31;;;;;;;2.72;1.15;;;19.00;67.40;;;;;;5029899;28;20517;-71
2022/06/09 04:55:56;;;;;;;2.70;1.20;;;19.00;67.60;;;;;;5029638;28;20433;-71
2022/06/09 04:58:22;;;;;;;2.47;1.00;;;18.90;67.80;;;;;;5028830;28;20489;-69
2022/06/09 05:00:48;;;;;;;3.20;1.35;;;18.80;68.00;;;;;;5029832;28;20018;-70
2022/06/09 05:03:14;;;;;;;6.07;1.50;;;18.80;68.60;;;;;;5029477;28;20531;-72
2022/06/09 05:05:43;;;;;;;2.67;1.00;;;18.70;68.60;;;;;;5029364;28;20028;-69
2022/06/09 05:08:11;;;;;;;2.95;1.25;;;18.80;68.40;;;;;;5028685;28;20028;-70
2022/06/09 05:10:38;;;;;;;2.90;1.52;;;18.70;68.90;;;;;;5029105;28;20068;-68
2022/06/09 05:13:05;;;;;;;2.80;1.55;;;18.70;68.80;;;;;;5028978;28;20422;-71
2022/06/09 05:15:34;;;;;;;4.32;1.42;;;18.80;68.30;;;;;;5029063;28;20033;-69
2022/06/09 05:18:00;;;;;;;2.30;1.10;;;18.90;68.00;;;;;;5028198;28;20025;-69
2022/06/09 05:20:27;;;;;;;3.58;1.15;;;18.80;68.30;;;;;;5029298;28;20022;-70
2022/06/09 05:22:53;;;;;;;4.25;1.45;;;18.90;68.30;;;;;;5029177;28;20017;-70
2022/06/09 05:25:19;;;;;;;2.70;1.30;;;18.90;67.90;;;;;;5011375;28;20390;-69
2022/06/09 05:27:45;;;;;;;2.00;1.48;;;18.90;68.20;;;;;;5028182;28;20375;-70
2022/06/09 05:30:24;;;;;;;4.72;1.40;;;19.00;67.90;;;;;;5028769;28;20022;-70
2022/06/09 05:32:49;;;;;;;3.60;1.30;;;19.00;67.90;;;;;;5028864;28;20032;-70
2022/06/09 05:35:16;;;;;;;2.80;1.25;;;19.00;67.80;;;;;;5029119;28;20108;-69
2022/06/09 05:45:59;;;;;;;3.13;0.85;;;19.50;66.10;;;;;;5028627;28;20082;-71
2022/06/09 05:48:25;;;;;;;3.78;1.02;;;19.60;66.10;;;;;;5027729;28;20022;-69
2022/06/09 05:50:51;;;;;;;2.28;0.90;;;19.70;65.60;;;;;;5027535;28;20100;-69
2022/06/09 05:53:17;;;;;;;5.07;1.58;;;19.60;65.90;;;;;;5028397;28;20101;-70
2022/06/09 05:55:43;;;;;;;2.42;1.40;;;19.70;65.50;;;;;;5028747;28;20037;-69
2022/06/09 05:58:10;;;;;;;5.53;1.40;;;19.80;65.50;;;;;;5027851;28;20513;-69
2022/06/09 06:00:37;;;;;;;3.50;1.35;;;19.80;65.00;;;;;;5010457;28;20142;-68
2022/06/09 06:03:03;;;;;;;6.60;1.23;;;19.80;65.40;;;;;;5028475;28;20467;-69
2022/06/09 06:08:13;;;;;;;3.10;0.80;;;19.50;66.20;;;;;;5027910;28;20082;-69
2022/06/09 06:10:39;;;;;;;3.30;1.50;;;19.50;66.00;;;;;;5028333;28;20045;-69
2022/06/09 06:13:05;;;;;;;2.78;1.33;;;19.40;66.00;;;;;;5028383;28;20041;-69
2022/06/09 06:15:31;;;;;;;4.00;1.20;;;19.30;66.70;;;;;;5028388;28;20022;-69
2022/06/09 06:18:01;;;;;;;3.95;1.30;;;19.40;66.40;;;;;;5027284;28;20032;-69
2022/06/09 06:20:26;;;;;;;3.47;1.27;;;19.30;66.60;;;;;;5010362;28;20052;-68
2022/06/09 06:22:52;;;;;;;3.85;1.27;;;19.20;67.10;;;;;;5028445;28;20711;-68
2022/06/09 06:25:18;;;;;;;2.75;1.02;;;19.30;66.90;;;;;;5028649;28;20104;-68
2022/06/09 06:27:43;;;;;;;5.75;1.20;;;19.30;66.80;;;;;;5027383;28;20037;-68
2022/06/09 06:30:09;;;;;;;2.13;0.95;;;19.20;66.60;;;;;;5027841;28;20041;-71
2022/06/09 06:32:35;;;;;;;0.82;0.75;;;19.20;66.90;;;;;;5028110;28;20029;-68
2022/06/09 06:35:01;;;;;;;3.65;1.27;;;19.10;67.30;;;;;;5027802;28;20495;-68
2022/06/09 06:37:26;;;;;;;3.92;1.40;;;19.30;67.20;;;;;;5009322;28;20032;-69
2022/06/09 06:39:52;;;;;;;1.70;1.30;;;19.20;67.10;;;;;;5027781;28;20029;-70
2022/06/09 06:42:18;;;;;;;1.52;1.17;;;19.30;66.70;;;;;;5027878;28;20491;-70
2022/06/09 06:44:43;;;;;;;4.35;1.10;;;19.20;67.20;;;;;;5028113;28;20024;-72
2022/06/09 06:47:11;;;;;;;1.42;1.15;;;19.30;67.10;;;;;;5027801;28;20506;-68
2022/06/09 06:49:37;;;;;;;1.55;0.95;;;19.20;67.40;;;;;;5027800;28;20368;-68
2022/06/09 06:52:03;;;;;;;1.70;1.05;;;19.30;67.40;;;;;;5027857;28;20021;-69
2022/06/09 06:54:30;;;;;;;3.85;0.98;;;19.20;67.50;;;;;;5009898;28;20041;-69
2022/06/09 06:56:55;;;;;;;3.15;1.20;;;19.20;67.60;;;;;;5027649;28;20021;-69
2022/06/09 06:59:21;;;;;;;5.50;1.75;;;19.30;68.10;;;;;;5027219;28;20390;-68
2022/06/09 07:01:47;;;;;;;2.40;1.13;;;19.40;71.80;;;;;;5105302;27;20043;-69
2022/06/09 07:04:13;;;;;;;2.50;1.50;;;19.30;70.70;;;;;;5039286;28;20029;-68
2022/06/09 07:06:41;;;;;;;3.60;1.15;;;19.20;69.30;;;;;;5042287;27;20128;-75
2022/06/09 07:09:07;;;;;;;7.47;1.15;;;19.10;69.30;;;;;;5012264;28;20041;-74
2022/06/09 07:11:33;;;;;;;3.30;1.13;;;19.20;69.10;;;;;;5010944;28;20033;-71
2022/06/09 07:13:59;;;;;;;2.55;1.38;;;19.30;69.60;;;;;;5013475;28;20074;-69
2022/06/09 07:16:24;;;;;;;5.38;1.83;;;19.40;68.60;;;;;;5013632;28;20141;-70
2022/06/09 07:18:50;;;;;;;12.30;5.07;;;19.50;67.90;;;;;;5030440;28;20025;-70
2022/06/09 07:21:16;;;;;;;4.97;2.42;;;19.60;67.70;;;;;;5013309;28;20026;-69
2022/06/09 07:23:42;;;;;;;6.05;1.80;;;19.90;66.60;;;;;;5031476;28;20018;-70
2022/06/09 07:26:08;;;;;;;15.23;7.13;;;20.10;66.00;;;;;;5031570;28;20033;-70
2022/06/09 07:28:34;;;;;;;3.22;1.55;;;20.30;64.90;;;;;;5030350;28;20479;-72
2022/06/09 07:31:02;;;;;;;3.35;1.75;;;20.20;64.70;;;;;;5031085;28;20037;-72
2022/06/09 07:33:30;;;;;;;5.13;2.88;;;20.30;64.30;;;;;;5016180;28;20495;-72
2022/06/09 07:35:57;;;;;;;58.95;45.97;;;20.50;64.30;;;;;;5031805;28;20036;-73
2022/06/09 07:38:25;;;;;;;201.93;134.13;;;20.50;63.60;;;;;;5044021;28;20146;-72
2022/06/09 07:40:51;;;;;;;9.40;6.07;;;20.50;63.80;;;;;;5039988;28;20017;-73
2022/06/09 07:43:19;;;;;;;33.03;21.00;;;20.50;63.60;;;;;;5020037;28;20391;-73
2022/06/09 07:45:44;;;;;;;16.98;10.18;;;20.60;63.70;;;;;;5039402;28;20025;-72
2022/06/09 07:48:10;;;;;;;23.38;15.18;;;20.50;63.80;;;;;;5045705;28;20022;-72
2022/06/09 07:50:36;;;;;;;22.20;14.88;;;20.50;63.80;;;;;;5030648;28;20108;-72
2022/06/09 07:53:02;;;;;;;10.23;6.10;;;20.30;64.40;;;;;;5040541;28;20025;-72
2022/06/09 07:55:30;;;;;;;10.57;7.00;;;20.10;65.00;;;;;;5045412;28;20521;-74
2022/06/09 07:57:59;;;;;;;14.82;9.57;;;20.00;65.40;;;;;;5032469;28;20021;-75
2022/06/09 08:00:25;;;;;;;11.02;7.05;;;19.80;65.30;;;;;;5026219;28;20071;-71
2022/06/09 08:02:51;;;;;;;7.10;4.97;;;19.70;65.40;;;;;;5039728;28;20077;-72
2022/06/09 08:05:20;;;;;;;7.50;3.63;;;19.70;65.40;;;;;;5036795;28;20050;-72
2022/06/09 08:07:46;;;;;;;8.05;4.80;;;19.60;65.80;;;;;;5031258;28;20044;-68
2022/06/09 08:10:20;;;;;;;15.55;10.98;;;19.50;66.70;;;;;;5045772;28;20021;-70
2022/06/09 08:12:51;;;;;;;2.83;2.22;;;19.60;66.40;;;;;;5011262;28;20057;-70
2022/06/09 08:15:17;;;;;;;18.67;12.97;;;19.60;66.90;;;;;;5028903;28;20040;-71
2022/06/09 08:17:44;;;;;;;4.32;1.42;;;19.70;66.80;;;;;;5026753;28;20070;-71
2022/06/09 08:20:13;;;;;;;11.55;5.03;;;19.90;66.40;;;;;;5029139;28;20026;-72
2022/06/09 08:22:41;;;;;;;7.68;5.20;;;20.20;65.70;;;;;;5029415;28;20082;-72
2022/06/09 08:25:08;;;;;;;5.07;4.05;;;20.20;65.30;;;;;;5029552;28;20049;-71
2022/06/09 08:27:34;;;;;;;2.72;2.30;;;20.00;65.60;;;;;;5030016;28;20022;-71
2022/06/09 08:30:00;;;;;;;4.75;3.50;;;20.00;65.80;;;;;;5030258;28;20029;-71
2022/06/09 08:32:25;;;;;;;8.18;3.83;;;20.00;65.80;;;;;;5030133;28;20491;-70
2022/06/09 08:34:51;;;;;;;7.15;4.57;;;20.00;65.90;;;;;;5030068;28;20025;-71
2022/06/09 08:37:16;;;;;;;7.47;5.32;;;20.00;66.00;;;;;;5027468;28;20061;-70
2022/06/09 08:39:42;;;;;;;4.50;2.50;;;19.90;66.40;;;;;;5029852;28;20017;-70
2022/06/09 08:42:08;;;;;;;4.10;2.30;;;20.00;65.70;;;;;;5029674;28;20017;-69
2022/06/09 08:44:59;;;;;;;7.63;2.95;;;20.00;65.80;;;;;;5029524;28;20017;-70
2022/06/09 08:47:33;;;;;;;4.63;1.35;;;20.20;65.50;;;;;;4991388;28;20091;-70
2022/06/09 08:50:02;;;;;;;1.58;1.13;;;20.30;64.80;;;;;;5010001;28;20431;-70
2022/06/09 08:52:46;;;;;;;6.88;4.72;;;20.50;64.20;;;;;;5009958;28;20022;-70
2022/06/09 08:55:34;;;;;;;1.85;1.20;;;20.60;64.00;;;;;;5010435;28;20033;-71
2022/06/09 08:58:15;;;;;;;5.60;2.25;;;20.60;63.80;;;;;;5009229;28;20025;-71
2022/06/09 09:00:49;;;;;;;1.20;1.10;;;20.70;63.90;;;;;;5010247;28;20026;-71
2022/06/09 09:03:27;;;;;;;2.63;1.98;;;20.60;63.60;;;;;;5009909;28;20048;-70
2022/06/09 09:05:59;;;;;;;2.33;1.70;;;20.70;63.20;;;;;;4992598;28;20020;-71
2022/06/09 09:08:25;;;;;;;1.98;1.50;;;20.60;62.90;;;;;;5009296;28;20030;-70
2022/06/09 09:10:57;;;;;;;3.15;2.13;;;20.40;63.60;;;;;;5021319;28;20048;-71
2022/06/09 09:13:59;;;;;;;1.88;1.70;;;20.20;64.80;;;;;;5029263;28;20034;-70
2022/06/09 09:16:53;;;;;;;2.47;1.33;;;20.10;65.10;;;;;;5029376;28;20173;-71
2022/06/09 09:19:40;;;;;;;3.45;2.25;;;19.80;66.80;;;;;;5011795;28;20026;-69
2022/06/09 09:22:43;;;;;;;2.20;2.00;;;19.70;69.40;;;;;;5029410;28;20033;-70
2022/06/09 09:25:13;;;;;;;2.83;2.20;;;19.40;70.00;;;;;;5028565;28;20030;-70
2022/06/09 09:28:05;;;;;;;5.28;2.08;;;19.20;70.80;;;;;;5011080;28;20078;-71
2022/06/09 09:30:41;;;;;;;4.35;2.10;;;19.10;71.10;;;;;;5029477;28;20032;-70
2022/06/09 09:33:14;;;;;;;2.42;2.22;;;19.10;71.50;;;;;;5028982;28;20042;-71
2022/06/09 09:35:45;;;;;;;3.70;2.90;;;19.20;71.60;;;;;;5029117;28;20025;-70
2022/06/09 09:38:16;;;;;;;2.28;2.17;;;19.40;71.70;;;;;;5027896;28;20036;-70
2022/06/09 09:40:45;;;;;;;2.35;2.15;;;19.40;71.50;;;;;;5029051;28;20368;-70
2022/06/09 09:43:17;;;;;;;3.13;2.83;;;19.50;71.10;;;;;;5029045;28;20022;-70
2022/06/09 09:45:48;;;;;;;5.80;2.95;;;19.50;73.10;;;;;;5011106;28;20513;-71
2022/06/09 09:48:17;;;;;;;3.63;3.33;;;19.30;75.40;;;;;;5028275;28;20029;-71
2022/06/09 09:50:58;;;;;;;3.60;3.30;;;19.20;77.30;;;;;;5028862;28;20057;-70
2022/06/09 09:53:32;;;;;;;4.38;3.85;;;18.90;78.40;;;;;;5028973;28;20057;-70
2022/06/09 09:56:16;;;;;;;5.43;4.93;;;18.40;79.80;;;;;;5028929;28;20073;-71
2022/06/09 09:58:48;;;;;;;4.60;4.30;;;18.20;81.90;;;;;;5028117;28;20018;-70
2022/06/09 10:01:16;;;;;;;8.25;5.90;;;17.90;81.90;;;;;;5028483;28;20090;-69
2022/06/09 10:09:57;;;;;;;5.90;5.35;;;17.70;85.50;;;;;;5029185;28;20515;-71
2022/06/09 10:12:22;;;;;;;5.70;5.15;;;17.60;84.60;;;;;;5029900;23;20046;-70
2022/06/09 10:15:17;;;;;;;6.18;4.97;;;17.60;85.00;;;;;;5028617;28;20025;-69
2022/06/09 10:18:02;;;;;;;5.88;5.30;;;17.60;83.90;;;;;;5027216;28;20437;-70
2022/06/09 10:20:43;;;;;;;5.55;4.93;;;17.50;84.80;;;;;;5028701;28;20030;-70
2022/06/09 10:23:16;;;;;;;7.68;4.43;;;17.60;84.80;;;;;;5028922;28;20044;-70
2022/06/09 10:25:47;;;;;;;4.90;4.43;;;17.70;83.50;;;;;;5028479;28;20024;-70
2022/06/09 10:28:12;;;;;;;;;;;17.80;83.70;;;;;;5014360;28;20056;-70
2022/06/09 10:30:49;;;;;;;4.32;4.03;;;17.90;83.50;;;;;;5028312;28;20364;-70
2022/06/09 10:33:27;;;;;;;4.88;4.47;;;18.00;82.50;;;;;;5028644;28;20025;-70
2022/06/09 10:36:00;;;;;;;4.13;3.72;;;18.00;81.90;;;;;;5028706;28;20029;-71
2022/06/09 10:38:34;;;;;;;6.95;4.20;;;18.00;80.70;;;;;;5031285;28;20026;-70
2022/06/09 10:41:09;;;;;;;5.00;3.80;;;18.20;81.80;;;;;;5032067;28;20514;-70
2022/06/09 10:43:47;;;;;;;4.30;3.95;;;18.20;80.60;;;;;;5032078;28;20022;-70
2022/06/09 10:46:28;;;;;;;4.45;4.05;;;18.30;80.20;;;;;;5031950;28;20032;-71
2022/06/09 10:55:42;;;;;;;5.10;4.68;;;18.80;80.30;;;;;;5031852;28;20032;-71
2022/06/09 10:58:27;;;;;;;5.13;4.72;;;18.70;79.70;;;;;;5013164;28;20519;-70
2022/06/09 11:00:53;;;;;;;6.60;4.22;;;18.70;80.40;;;;;;5031301;28;20022;-71
2022/06/09 11:03:23;;;;;;;5.30;4.90;;;18.70;80.40;;;;;;5031681;28;20030;-70
2022/06/09 11:05:49;;;;;;;6.30;5.27;;;18.70;81.00;;;;;;5031628;28;20398;-70
2022/06/09 11:08:35;;;;;;;5.85;4.88;;;18.80;80.60;;;;;;5030595;28;20032;-70
2022/06/09 11:11:09;;;;;;;5.55;5.05;;;18.70;80.70;;;;;;5031543;28;20094;-70
2022/06/09 11:14:04;;;;;;;7.30;5.25;;;18.80;81.10;;;;;;5013546;28;20037;-71
2022/06/09 11:16:41;;;;;;;6.10;4.50;;;19.00;78.80;;;;;;5017646;28;20038;-71
2022/06/09 11:19:13;;;;;;;5.90;5.15;;;;;;;;;;5031335;28;20104;-71
2022/06/09 11:22:02;;;;;;;6.88;4.85;;;19.40;77.50;;;;;;5031376;28;20044;-71
2022/06/09 11:24:51;;;;;;;5.97;5.38;;;19.40;76.50;;;;;;5031600;28;20104;-70
2022/06/09 11:27:20;;;;;;;5.90;4.18;;;19.40;75.70;;;;;;5030883;28;20037;-71
2022/06/09 11:30:02;;;;;;;5.28;4.78;;;19.50;76.40;;;;;;5013513;28;20438;-71
2022/06/09 11:32:52;;;;;;;4.95;4.05;;;19.60;75.80;;;;;;5030905;28;20041;-70
2022/06/09 11:35:31;;;;;;;10.20;5.15;;;19.70;74.60;;;;;;5011035;28;20026;-71
2022/06/09 11:38:12;;;;;;;8.27;4.50;;;19.80;74.10;;;;;;5014152;28;20070;-70
2022/06/09 11:41:05;;;;;;;5.60;3.90;;;19.90;75.20;;;;;;5012891;28;20113;-70
2022/06/09 11:44:06;;;;;;;6.43;4.43;;;20.30;73.70;;;;;;5030805;28;20248;-70
2022/06/09 11:46:36;;;;;;;7.35;4.07;;;20.60;72.40;;;;;;4958091;28;20038;-70
2022/06/09 11:49:06;;;;;;;4.03;3.63;;;20.70;71.60;;;;;;5012360;28;20066;-69
2022/06/09 11:51:34;;;;;;;8.30;4.13;;;20.60;71.30;;;;;;5030590;28;20479;-70
2022/06/09 11:54:04;;;;;;;4.15;3.63;;;20.60;70.00;;;;;;5030677;28;20018;-70
2022/06/09 11:56:36;;;;;;;7.28;3.50;;;20.40;70.60;;;;;;5030967;28;20073;-70
2022/06/09 11:59:19;;;;;;;5.75;3.92;;;20.50;71.00;;;;;;5029960;28;20067;-72
2022/06/09 12:02:00;;;;;;;4.30;3.90;;;20.50;71.00;;;;;;5030606;28;20033;-69
2022/06/09 12:04:54;;;;;;;5.60;3.63;;;20.50;71.00;;;;;;5030661;28;20033;-72
2022/06/09 12:07:28;;;;;;;6.75;3.60;;;20.80;69.40;;;;;;4959374;28;20404;-72
2022/06/09 12:10:24;;;;;;;7.00;3.22;;;21.00;69.10;;;;;;5030408;28;20036;-73
2022/06/09 12:13:25;;;;;;;7.03;4.05;;;21.50;66.30;;;;;;4996277;28;20196;-72
2022/06/09 12:15:59;;;;;;;5.35;3.17;;;21.50;66.80;;;;;;5030628;28;20029;-71
2022/06/09 12:18:34;;;;;;;3.95;3.10;;;21.60;64.30;;;;;;5029982;28;20033;-72
2022/06/09 12:21:12;;;;;;;4.65;3.17;;;21.70;65.00;;;;;;5030035;28;20021;-71
2022/06/09 12:23:50;;;;;;;7.60;3.58;;;21.90;65.00;;;;;;5030590;28;20018;-72
2022/06/09 12:26:18;;;;;;;6.30;3.70;;;22.10;63.60;;;;;;5030698;28;20021;-72
2022/06/09 12:28:49;;;;;;;6.65;3.33;;;22.30;62.30;;;;;;5029464;28;20382;-71
2022/06/09 12:31:20;;;;;;;3.88;3.45;;;22.30;61.90;;;;;;5029989;28;20518;-71
2022/06/09 12:34:00;;;;;;;3.72;3.08;;;22.40;62.60;;;;;;5029961;28;20030;-72
2022/06/09 12:36:49;;;;;;;4.82;2.83;;;22.70;60.60;;;;;;5029863;28;20021;-72
2022/06/09 12:39:23;;;;;;;4.97;3.30;;;22.90;59.60;;;;;;5029515;28;20048;-72
2022/06/09 12:41:53;;;;;;;5.00;3.30;;;22.70;60.00;;;;;;5013131;28;20392;-72
2022/06/09 12:44:24;;;;;;;9.03;3.60;;;22.60;60.20;;;;;;5030932;28;20088;-72
2022/06/09 12:46:54;;;;;;;;;;;22.60;59.40;;;;;;5032130;28;20454;-73
2022/06/09 12:49:44;;;;;;;5.55;3.60;;;22.70;59.10;;;;;;5031275;28;19992;-73
2022/06/09 12:52:38;;;;;;;8.95;4.35;;;22.50;59.70;;;;;;5030783;28;20030;-74
2022/06/09 12:55:12;;;;;;;5.00;3.80;;;22.50;59.80;;;;;;5028591;28;20045;-73
2022/06/09 12:57:45;;;;;;;7.18;3.38;;;22.60;59.70;;;;;;5029615;28;20673;-72
2022/06/09 13:00:21;;;;;;;6.60;3.30;;;22.90;60.10;;;;;;5029422;28;20032;-70
2022/06/09 13:02:48;;;;;;;6.88;3.95;;;23.10;59.60;;;;;;5029532;28;20018;-71
2022/06/09 13:05:27;;;;;;;7.57;4.43;;;23.10;57.90;;;;;;5029583;28;20047;-71
2022/06/09 13:08:03;;;;;;;5.50;3.45;;;23.00;57.80;;;;;;5029030;28;20029;-70
2022/06/09 13:10:30;;;;;;;4.70;3.75;;;23.30;56.80;;;;;;5029517;28;20030;-72
2022/06/09 13:13:04;;;;;;;6.80;3.70;;;23.40;57.30;;;;;;5029136;28;20030;-71
2022/06/09 13:15:39;;;;;;;10.90;4.45;;;23.40;56.40;;;;;;5029614;28;20029;-72
2022/06/09 13:18:14;;;;;;;7.82;4.00;;;23.40;56.70;;;;;;5028357;28;20556;-72
2022/06/09 13:21:07;;;;;;;9.25;4.65;;;23.40;56.30;;;;;;5010159;28;20033;-72
2022/06/09 13:23:34;;;;;;;5.65;4.07;;;23.20;56.90;;;;;;5028059;28;20033;-72
2022/06/09 13:26:01;;;;;;;7.35;3.95;;;23.00;57.10;;;;;;5029114;28;20018;-72
2022/06/09 13:28:29;;;;;;;8.50;4.50;;;22.90;58.80;;;;;;5010917;28;20483;-72
2022/06/09 13:30:56;;;;;;;5.40;3.53;;;23.10;58.50;;;;;;5011418;28;20033;-72
2022/06/09 13:33:31;;;;;;;6.05;3.50;;;23.20;57.40;;;;;;5011263;28;20494;-73
2022/06/09 13:36:18;;;;;;;10.32;3.35;;;23.50;57.20;;;;;;5029077;28;20110;-72
2022/06/09 13:38:44;;;;;;;6.18;4.10;;;23.90;56.20;;;;;;5010766;28;20034;-71
2022/06/09 13:41:29;;;;;;;5.10;3.40;;;23.70;56.70;;;;;;5029151;28;20077;-73